1st December 2019 | Otago, New Zealand

The Pioneer fuelled by Nutri-Grain (2019)

Moke Lake Prologue Teams

Pos Team Name Team Time Points Category (Pos)
1 (#110) GIANT AUSTRALIA OFF-ROAD TEAM 01:11:16 3 Open Men (1)
2 (#119) MAAP SHIMANO 01:11:34 7 Open Men (2)
3 (#128) ONYA BIKE NORTH OTAGO 01:11:41 11 Open Men (3)
4 (#148) WINGER HAMILTON 01:12:36 15 Open Men (4)
5 (#151) MARATHONMTB.COM 01:13:00 19 Open Men (5)
6 (#108) CYCLIST MAGAZINE 01:15:25 23 Open Men (6)
7 (#126) MCMILLAN CIVIL 01:16:06 27 Open Men (7)
8 (#133) SPECIALISED STRUCTURES 01:16:36 31 Open Men (8)
9 (#440) OFF THE CHAIN 01:18:22 35 Masters Men (1)
10 (#326) TEAM NEW WORLD-PIVOT 01:18:42 39 Mixed (1)
11 (#336) TEAM JOJO 01:18:44 43 Mixed (2)
12 (#136) GREENMONKEY 01:18:51 47 Open Men (9)
13 (#106) CYCLE WORLD RACING 01:19:31 51 Open Men (10)
14 (#429) OPTIMAL PERFORMANCE 01:19:40 55 Masters Men (2)
15 (#121) MORTGAGE ME NZ CYCLING PROJECT 01:19:50 59 Open Men (11)
16 (#333) SRAM MTOSS 01:20:19 63 Mixed (3)
17 (#630) TERREACTIVE IT SECURITY 01:20:41 67 Grand Masters Men (1)
18 (#105) CIRCUIT ASPHALT 01:21:29 71 Open Men (12)
19 (#432) RIVET RACING 01:22:17 75 Masters Men (3)
20 (#410) CYCLE OBSESSION 01:22:43 79 Masters Men (4)
21 (#633) THE HUB CYCLE CENTRE - RUNNING OUT OF SUMMERS 01:24:12 83 Grand Masters Men (2)
22 (#412) CYCLINGTIPS.COM 01:24:28 87 Masters Men (5)
23 (#437) SILVERSKYCYCLE 01:24:53 91 Masters Men (6)
24 (#608) CYCLEWAYS 01:25:15 97 Grand Masters Men (3)
25 (#203) STONEWOOD HOMES 01:25:15 97 Open Women (1)
26 (#323) SHIMANO PUSHYS CANNONDALE 01:25:16 103 Mixed (4)
27 (#124) NEW WORLD ST MARTINS 01:25:21 107 Open Men (13)
28 (#134) SQUAREONE PHYSIO 01:25:37 111 Open Men (14)
29 (#638) VELO WORKSHOP 01:25:53 115 Grand Masters Men (4)
30 (#411) STICKY BOTTLE 01:26:12 119 Masters Men (7)
31 (#434) SHAUN & MATT - AKA SHAT 01:26:23 123 Masters Men (8)
32 (#127) ONE HIT WONDERS 01:27:24 127 Open Men (15)
33 (#101) FLEET CYCLES 01:27:30 131 Open Men (16)
34 (#137) TEAM ELEVATE 01:27:32 135 Open Men (17)
35 (#107) CYCLETIME HAMILTON 01:27:36 139 Open Men (18)
36 (#317) MTBVL ADVENTURES 01:27:52 143 Mixed (5)
37 (#102) BLUBLOKES 01:28:10 147 Open Men (19)
38 (#436) SHOW NO WEAKNESS 01:28:31 151 Masters Men (9)
39 (#413) DAIKIN THERMAL SOLUTIONS 01:29:07 155 Masters Men (10)
40 (#116) LANKY N RANKY 01:29:13 159 Open Men (20)
41 (#620) RIDETECHNICS 01:30:03 163 Grand Masters Men (5)
42 (#310) EQUIPE IRIS-BOB CYCLO 01:30:09 167 Mixed (6)
43 (#414) DUSTYDAZE WHANGAREI 01:30:17 171 Masters Men (11)
44 (#118) LES MORREAUX 01:30:30 175 Open Men (21)
45 (#139) TEAM VELO-REICHMUTH.CH 01:30:32 179 Open Men (22)
46 (#444) TEAM SMIDDY 01:30:44 183 Masters Men (12)
47 (#427) OAMARU HONDA 01:30:53 187 Masters Men (13)
48 (#452) VEGAS BOYS 01:31:27 191 Masters Men (14)
49 (#149) THE PIONEERS 01:31:52 195 Open Men (23)
50 (#335) GREENMONKEY/PIVOT CYCLES 01:31:53 199 Mixed (7)
51 (#202) NEW WORLD ST MARTINS WOMEN 01:32:10 203 Open Women (2)
52 (#428) OLD BOYS OUT OF CONTROL 01:33:09 207 Masters Men (15)
53 (#320) REMARKABLE PHYSIOS 01:33:33 211 Mixed (8)
54 (#138) TEAM PINNACLE 01:33:53 215 Open Men (24)
55 (#311) FASTLANE 2 01:33:59 219 Mixed (9)
56 (#141) TEDS & FLASH 01:34:13 223 Open Men (25)
57 (#422) KEA - EAGLE 01:34:54 227 Masters Men (16)
58 (#122) GALILEO RISK 01:35:06 231 Open Men (26)
59 (#424) MEOGP RACING TEAM 01:35:22 235 Masters Men (17)
60 (#430) OUT OF OFFICE 01:35:24 239 Masters Men (18)
61 (#503) EARNSCLEUGH EXPRESS 01:35:29 243 Masters Women (1)
62 (#146) TWO WATTS 01:35:52 247 Open Men (27)
63 (#640) LES CROQUES MONSIEURS 01:36:16 251 Grand Masters Men (6)
64 (#130) PURE SPORTS NUTRITION 01:36:34 255 Open Men (28)
65 (#201) TIKI WINE & VINEYARDS 01:37:07 259 Open Women (3)
66 (#449) THE VIKINGS 01:37:11 263 Masters Men (19)
67 (#123) NBRCC 01:37:31 267 Open Men (29)
68 (#305) BIKETO-YUXI TEAM 01:37:43 271 Mixed (10)
69 (#415) FIZO CYCLING 01:38:01 275 Masters Men (20)
70 (#419) ICE 01:38:16 279 Masters Men (21)
71 (#454) WAZZA DUO 01:38:18 283 Masters Men (22)
72 (#641) TWO OLD FOR THIS MATE 01:38:31 287 Grand Masters Men (7)
73 (#147) WRBIKES 01:39:01 291 Open Men (30)
74 (#143) THE HANDLEBAR DADS - MOVEMBER NZ 01:39:08 295 Open Men (31)
75 (#150) TEAM GREFIN 01:39:32 299 Open Men (32)
76 (#125) NOT HERE TO F**K SPIDERS 01:39:36 303 Open Men (33)
77 (#405) BLACKYARD RACING - STRAYA 01:40:16 307 Masters Men (23)
78 (#601) 1E SIBA MTB TEAM 01:40:37 311 Grand Masters Men (8)
79 (#111) GOOI MIELIES 01:40:58 315 Open Men (34)
80 (#114) KIESER AUSTRALIA 01:41:20 319 Open Men (35)
81 (#408) CALSONASSOS IBIZA 1 01:41:56 323 Masters Men (24)
82 (#443) TEAM RACK 'N' STACK 01:42:48 327 Masters Men (25)
83 (#316) MOUNTAIN SNAILS 01:42:53 331 Mixed (11)
84 (#313) KISIELS@50 01:43:19 337 Mixed (12)
85 (#621) SEEDED WHEELS 01:43:20 341 Grand Masters Men (9)
86 (#603) 2DEGREES 01:43:23 345 Grand Masters Men (10)
87 (#625) TEAM BIG RIDE 01:43:30 349 Grand Masters Men (11)
88 (#451) TWO WEAK LINKS 01:43:49 353 Masters Men (26)
89 (#314) LIV AND JOE 01:43:55 357 Mixed (13)
90 (#328) THE FREE WHEELERS 01:44:19 361 Mixed (14)
91 (#315) LYNX REAL ESTATE 01:44:21 365 Mixed (15)
92 (#618) RANGI ROCKETS 01:44:23 369 Grand Masters Men (12)
93 (#507) OUTLAW SISTERS 01:44:45 373 Masters Women (2)
94 (#433) RPM 01:45:19 377 Masters Men (27)
95 (#637) TWO SOUTHERN MEN 01:45:24 381 Grand Masters Men (13)
96 (#610) DEUSA 01:45:45 385 Grand Masters Men (14)
97 (#318) PADDY & CO 01:45:51 389 Mixed (16)
98 (#401) 2 BROKE BLOKES 01:45:57 393 Masters Men (28)
99 (#447) THE BENDS 01:46:04 397 Masters Men (29)
100 (#445) TERRA FIRMA SKODA 01:46:08 401 Masters Men (30)
101 (#302) ALREADY KNOW BETTER! 01:46:16 405 Mixed (17)
102 (#426) NEW WORLD KUMEU 01:46:19 409 Masters Men (31)
103 (#407) CALCONASSOS IBIZA 3 01:46:20 413 Masters Men (32)
104 (#609) DEFEND FIRE PROTECTION 01:46:30 417 Mixed (18)
105 (#502) DEFEND FIRE PROTECTION GIRLS ON FIRE 01:46:38 421 Masters Women (3)
106 (#629) TEAM: NUTRI-GRAIN 01:47:03 425 Grand Masters Men (15)
107 (#417) HILLBILLYS 01:47:15 429 Masters Men (33)
108 (#406) BOTH SIDES OF THE DITCH 01:47:19 433 Masters Men (34)
109 (#508) TEAM CYCLEWAYS 01:47:27 437 Masters Women (4)
110 (#145) THE OTHER GUYS 01:47:52 441 Open Men (36)
111 (#129) PROJECT THREE SIXTY LIMITED 01:47:54 445 Open Men (37)
112 (#140) TEAM VICTORY VETS 01:48:09 449 Open Men (38)
113 (#409) CALSONASSOS IBIZA 4 01:48:41 453 Masters Men (35)
114 (#144) THE HIPPY & THE GYPPY 01:48:54 458 Open Men (39)
115 (#330) CYCLE OBSESSION - MIXED 01:48:54 460 Mixed (19)
116 (#306) BLACKYARD RACING - SI 01:49:24 465 Mixed (20)
117 (#113) KELLYS CAFE & BAR 01:49:42 469 Open Men (40)
118 (#104) CALCONASSOS IBIZA 2 01:49:44 473 Open Men (41)
119 (#501) CABLE LOGGING GERALDINE NZ 01:50:08 477 Masters Women (5)
120 (#135) TARANAKI HARDTAILS 01:50:56 481 Open Men (42)
121 (#450) THE WOLFPACK 01:52:40 485 Masters Men (36)
122 (#442) TEAM KT-26 01:52:44 489 Masters Men (37)
123 (#438) SINOGULF 01:52:47 493 Masters Men (38)
124 (#628) TEAM X 01:52:56 497 Grand Masters Men (16)
125 (#505) I SHOP NEW WORLD 01:53:36 504 Masters Women (6)
126 (#622) SMILES FOR THE PACIFIC 01:53:37 506 Grand Masters Men (17)
127 (#117) LEGEND CHX 01:53:43 511 Open Men (43)
128 (#402) 4 STRONG LEGS 01:54:26 515 Masters Men (39)
129 (#607) CRY N' FEAR 01:54:52 519 Grand Masters Men (18)
130 (#301) AKSA TEAM 01:55:12 523 Mixed (21)
131 (#304) JACQUES & GEORGIA 01:55:15 527 Mixed (22)
132 (#303) AN EPIC COMBO 01:55:47 533 Mixed (23)
133 (#307) BLACKYARD RACING NI 01:55:57 537 Mixed (24)
134 (#634) THE WHIPPETS 01:56:03 535 Grand Masters Men (19)
135 (#131) RATHOLE RACING 01:56:06 545 Open Men (44)
136 (#612) EPICURE 01:56:06 545 Grand Masters Men (20)
137 (#446) THE 2 AMIGOS 01:56:08 551 Masters Men (40)
138 (#456) ZOOMEN 01:56:13 555 Masters Men (41)
139 (#617) OH REALLY 01:56:34 559 Grand Masters Men (21)
140 (#329) THE WHEELS 01:57:10 563 Mixed (25)
141 (#604) 86 400 01:58:14 567 Grand Masters Men (22)
142 (#453) WALTER AND STATLER 01:58:55 571 Masters Men (42)
143 (#602) 2 AUSSIE PADDLERS 01:59:47 575 Grand Masters Men (23)
144 (#605) AGAINST ALL ODDS 01:59:56 579 Grand Masters Men (24)
145 (#606) AXIS HOUSE CYCLE 4 CANSA 01:59:57 583 Grand Masters Men (25)
146 (#639) WELL VENTECH 02:00:32 587 Grand Masters Men (26)
147 (#624) START SLOW 02:00:46 591 Grand Masters Men (27)
148 (#423) LUP & HONG 02:00:50 595 Masters Men (43)
149 (#441) TEAM DANÆS AHON 02:01:04 599 Masters Men (44)
150 (#421) ITS CHEAPER THAN THERAPY 02:01:36 603 Masters Men (45)
151 (#615) JAM 02:02:00 607 Grand Masters Men (28)
152 (#623) SO FAR BUT SO CLOSE 02:02:25 611 Grand Masters Men (29)
153 (#626) TEAM DNR 02:02:51 615 Grand Masters Men (30)
154 (#319) RED ALERT 02:03:00 619 Mixed (26)
155 (#420) INOSYM 02:03:48 623 Masters Men (46)
156 (#142) THAT'S THE RHYTHM 02:03:57 627 Open Men (45)
157 (#325) TEAM EDGAR 02:05:08 631 Mixed (27)
158 (#632) THE BEAVERTOWN BOYS 02:05:58 635 Grand Masters Men (31)
159 (#627) TEAM MAMMOTH 02:07:03 639 Grand Masters Men (32)
160 (#635) TRYING AGAIN 02:08:07 643 Grand Masters Men (33)
161 (#321) SERPANTIN 02:08:15 647 Mixed (28)
162 (#416) GLOBALID 02:09:29 651 Masters Men (47)
163 (#613) GIORGI EXCLUSIVE HOMES 02:11:41 655 Grand Masters Men (34)
164 (#324) SUNKONGS 02:11:50 659 Mixed (29)
165 (#308) COLORADO CRUISERS 02:13:39 663 Mixed (30)
166 (#455) WINE DINE FINISH LINE 02:14:23 667 Masters Men (48)
167 (#115) LA PLATA PEDALERS 02:16:17 671 Open Men (46)
168 (#631) THE BARNES GROUP RACING SNAKES 02:17:09 675 Grand Masters Men (35)
169 (#506) NORTH TO SOUTH 02:19:01 679 Masters Women (7)
170 (#439) SYED & JUAN MTB TEAM 02:19:25 683 Masters Men (49)
171 (#332) WESTRA-CHOO 02:25:48 687 Mixed (31)
172 (#614) GIVE IT HORNS 02:30:53 691 Grand Masters Men (36)
173 (#312) FENTON 02:34:09 695 Mixed (32)
174 (#418) I CLIMB WELL FOR MY WEIGHT 02:35:28 699 Masters Men (50)
175 (#504) GREG PARRÆS GIRL TORQUE 02:44:23 703 Masters Women (8)
176 (#327) TEAM PHENOMENAL HOPE 02:46:50 707 Mixed (33)
- (#435) SHIMANO Masters Men
- (#103) BLUE CYCLES Open Men